sensor_id;sensor_type;location;lat;lon;timestamp;pressure;altitude;pressure_sealevel;temperature;humidity
69772;BME280;57046;45.988;18.664;2023-01-28T00:01:20;100747.78;;;2.61;97.96
69772;BME280;57046;45.988;18.664;2023-01-28T00:03:49;100751.22;;;2.56;98.29
69772;BME280;57046;45.988;18.664;2023-01-28T00:06:14;100740.03;;;2.54;98.22
69772;BME280;57046;45.988;18.664;2023-01-28T00:08:40;100752.84;;;2.62;98.42
69772;BME280;57046;45.988;18.664;2023-01-28T00:11:06;100755.56;;;2.72;98.03
69772;BME280;57046;45.988;18.664;2023-01-28T00:13:33;100746.28;;;2.80;97.12
69772;BME280;57046;45.988;18.664;2023-01-28T00:16:01;100749.22;;;2.78;97.22
69772;BME280;57046;45.988;18.664;2023-01-28T00:18:27;100751.28;;;2.61;97.43
69772;BME280;57046;45.988;18.664;2023-01-28T00:23:33;100741.66;;;2.55;97.48
69772;BME280;57046;45.988;18.664;2023-01-28T00:26:00;100753.44;;;2.69;97.33
69772;BME280;57046;45.988;18.664;2023-01-28T00:28:26;100760.38;;;2.65;97.37
69772;BME280;57046;45.988;18.664;2023-01-28T00:30:51;100749.69;;;2.65;97.65
69772;BME280;57046;45.988;18.664;2023-01-28T00:33:17;100750.03;;;2.79;96.88
69772;BME280;57046;45.988;18.664;2023-01-28T00:35:42;100735.28;;;2.66;97.12
69772;BME280;57046;45.988;18.664;2023-01-28T00:38:08;100760.38;;;2.70;97.33
69772;BME280;57046;45.988;18.664;2023-01-28T00:40:34;100755.56;;;2.72;97.26
69772;BME280;57046;45.988;18.664;2023-01-28T00:43:00;100764.03;;;2.59;97.49
69772;BME280;57046;45.988;18.664;2023-01-28T00:45:25;100746.75;;;2.62;97.06
69772;BME280;57046;45.988;18.664;2023-01-28T00:47:50;100766.75;;;2.69;97.46
69772;BME280;57046;45.988;18.664;2023-01-28T00:50:16;100750.19;;;2.57;97.09
69772;BME280;57046;45.988;18.664;2023-01-28T00:52:41;100752.84;;;2.62;96.96
69772;BME280;57046;45.988;18.664;2023-01-28T00:55:07;100762.47;;;2.63;97.31
69772;BME280;57046;45.988;18.664;2023-01-28T00:57:32;100766.50;;;2.71;96.68
69772;BME280;57046;45.988;18.664;2023-01-28T00:59:58;100752.84;;;2.57;97.23
69772;BME280;57046;45.988;18.664;2023-01-28T01:02:24;100762.50;;;2.68;96.78
69772;BME280;57046;45.988;18.664;2023-01-28T01:04:50;100766.81;;;2.74;97.05
69772;BME280;57046;45.988;18.664;2023-01-28T01:07:15;100769.72;;;2.68;97.48
69772;BME280;57046;45.988;18.664;2023-01-28T01:09:41;100767.28;;;2.66;96.62
69772;BME280;57046;45.988;18.664;2023-01-28T01:12:06;100772.63;;;2.66;97.23
69772;BME280;57046;45.988;18.664;2023-01-28T01:14:31;100769.13;;;2.61;97.14
69772;BME280;57046;45.988;18.664;2023-01-28T01:16:57;100772.09;;;2.64;97.23
69772;BME280;57046;45.988;18.664;2023-01-28T01:19:22;100764.84;;;2.60;96.81
69772;BME280;57046;45.988;18.664;2023-01-28T01:21:47;100771.53;;;2.57;97.05
69772;BME280;57046;45.988;18.664;2023-01-28T01:24:13;100757.38;;;2.51;97.62
69772;BME280;57046;45.988;18.664;2023-01-28T01:26:38;100781.94;;;2.64;97.45
69772;BME280;57046;45.988;18.664;2023-01-28T01:29:03;100772.91;;;2.65;96.92
69772;BME280;57046;45.988;18.664;2023-01-28T01:31:29;100773.69;;;2.65;97.08
69772;BME280;57046;45.988;18.664;2023-01-28T01:33:54;100778.25;;;2.70;96.86
69772;BME280;57046;45.988;18.664;2023-01-28T01:36:19;100764.03;;;2.59;96.83
69772;BME280;57046;45.988;18.664;2023-01-28T01:38:45;100774.00;;;2.69;96.95
69772;BME280;57046;45.988;18.664;2023-01-28T01:41:24;100781.94;;;2.64;97.23
69772;BME280;57046;45.988;18.664;2023-01-28T01:43:53;100773.69;;;2.65;97.09
69772;BME280;57046;45.988;18.664;2023-01-28T01:46:26;100775.06;;;2.73;97.02
69772;BME280;57046;45.988;18.664;2023-01-28T01:48:55;100763.53;;;2.62;97.49
69772;BME280;57046;45.988;18.664;2023-01-28T01:51:26;100782.53;;;2.71;97.23
69772;BME280;57046;45.988;18.664;2023-01-28T01:53:54;100764.56;;;2.56;97.15
69772;BME280;57046;45.988;18.664;2023-01-28T01:56:24;100784.38;;;2.65;97.40
69772;BME280;57046;45.988;18.664;2023-01-28T01:58:54;100788.66;;;2.76;97.43
69772;BME280;57046;45.988;18.664;2023-01-28T02:01:22;100782.28;;;2.77;97.25
69772;BME280;57046;45.988;18.664;2023-01-28T02:03:59;100787.09;;;2.80;97.20
69772;BME280;57046;45.988;18.664;2023-01-28T02:06:27;100787.91;;;2.81;96.92
69772;BME280;57046;45.988;18.664;2023-01-28T02:08:56;100797.25;;;2.83;96.96
69772;BME280;57046;45.988;18.664;2023-01-28T02:11:25;100796.66;;;2.71;97.26
69772;BME280;57046;45.988;18.664;2023-01-28T02:13:53;100793.75;;;2.78;97.30
69772;BME280;57046;45.988;18.664;2023-01-28T02:16:21;100807.44;;;2.91;97.14
69772;BME280;57046;45.988;18.664;2023-01-28T02:18:47;100764.34;;;2.63;97.26
69772;BME280;57046;45.988;18.664;2023-01-28T02:24:14;100809.53;;;2.84;97.59
69772;BME280;57046;45.988;18.664;2023-01-28T02:29:36;100804.41;;;2.73;98.03
69772;BME280;57046;45.988;18.664;2023-01-28T02:34:40;100810.88;;;2.82;97.97
69772;BME280;57046;45.988;18.664;2023-01-28T02:39:40;100802.53;;;2.73;97.79
69772;BME280;57046;45.988;18.664;2023-01-28T02:42:10;100809.97;;;2.66;98.05
69772;BME280;57046;45.988;18.664;2023-01-28T02:44:37;100792.78;;;2.47;98.14
69772;BME280;57046;45.988;18.664;2023-01-28T02:47:10;100791.50;;;2.54;97.94
69772;BME280;57046;45.988;18.664;2023-01-28T02:50:13;100812.97;;;2.80;97.39
69772;BME280;57046;45.988;18.664;2023-01-28T02:52:55;100801.91;;;2.56;98.22
69772;BME280;57046;45.988;18.664;2023-01-28T02:55:38;100814.25;;;2.67;98.04
69772;BME280;57046;45.988;18.664;2023-01-28T03:03:24;100808.91;;;2.67;98.16
69772;BME280;57046;45.988;18.664;2023-01-28T03:05:58;100803.28;;;2.59;98.56
69772;BME280;57046;45.988;18.664;2023-01-28T03:08:25;100796.56;;;2.56;98.72
69772;BME280;57046;45.988;18.664;2023-01-28T03:10:52;100810.00;;;2.76;98.13
69772;BME280;57046;45.988;18.664;2023-01-28T03:13:18;100815.06;;;2.68;97.99
69772;BME280;57046;45.988;18.664;2023-01-28T03:15:46;100798.72;;;2.54;98.49
69772;BME280;57046;45.988;18.664;2023-01-28T03:18:17;100789.66;;;2.55;98.59
69772;BME280;57046;45.988;18.664;2023-01-28T03:20:50;100813.78;;;2.75;98.50
69772;BME280;57046;45.988;18.664;2023-01-28T03:23:22;100812.13;;;2.69;98.10
69772;BME280;57046;45.988;18.664;2023-01-28T03:25:54;100799.00;;;2.63;98.03
69772;BME280;57046;45.988;18.664;2023-01-28T03:28:22;100819.06;;;2.70;97.94
69772;BME280;57046;45.988;18.664;2023-01-28T03:31:05;100813.66;;;2.60;97.90
69772;BME280;57046;45.988;18.664;2023-01-28T03:33:34;100816.63;;;2.64;98.37
69772;BME280;57046;45.988;18.664;2023-01-28T03:36:01;100779.13;;;2.38;98.18
69772;BME280;57046;45.988;18.664;2023-01-28T03:38:26;100804.78;;;2.44;98.17
69772;BME280;57046;45.988;18.664;2023-01-28T03:40:55;100808.84;;;2.57;98.09
69772;BME280;57046;45.988;18.664;2023-01-28T03:43:21;100823.06;;;2.68;97.61
69772;BME280;57046;45.988;18.664;2023-01-28T03:45:47;100816.38;;;2.65;97.84
69772;BME280;57046;45.988;18.664;2023-01-28T03:48:13;100816.66;;;2.69;97.05
69772;BME280;57046;45.988;18.664;2023-01-28T03:50:38;100817.72;;;2.68;97.26
69772;BME280;57046;45.988;18.664;2023-01-28T03:53:04;100813.47;;;2.72;97.32
69772;BME280;57046;45.988;18.664;2023-01-28T03:55:29;100811.53;;;2.62;96.60
69772;BME280;57046;45.988;18.664;2023-01-28T03:57:55;100814.00;;;2.69;97.48
69772;BME280;57046;45.988;18.664;2023-01-28T04:00:20;100815.88;;;2.68;96.99
69772;BME280;57046;45.988;18.664;2023-01-28T04:02:45;100816.94;;;2.72;97.25
69772;BME280;57046;45.988;18.664;2023-01-28T04:05:11;100817.44;;;2.69;96.74
69772;BME280;57046;45.988;18.664;2023-01-28T04:07:36;100814.50;;;2.66;96.64
69772;BME280;57046;45.988;18.664;2023-01-28T04:10:01;100823.88;;;2.68;96.79
69772;BME280;57046;45.988;18.664;2023-01-28T04:12:27;100805.66;;;2.60;96.66
69772;BME280;57046;45.988;18.664;2023-01-28T04:14:52;100824.44;;;2.75;96.19
69772;BME280;57046;45.988;18.664;2023-01-28T04:17:18;100821.53;;;2.87;96.02
69772;BME280;57046;45.988;18.664;2023-01-28T04:19:43;100814.81;;;2.74;95.86
69772;BME280;57046;45.988;18.664;2023-01-28T04:22:10;100815.81;;;2.63;96.33
69772;BME280;57046;45.988;18.664;2023-01-28T04:24:36;100825.41;;;2.59;96.49
69772;BME280;57046;45.988;18.664;2023-01-28T04:27:01;100846.28;;;2.72;95.93
69772;BME280;57046;45.988;18.664;2023-01-28T04:29:26;100803.53;;;2.57;95.75
69772;BME280;57046;45.988;18.664;2023-01-28T04:31:52;100819.59;;;2.72;95.72
69772;BME280;57046;45.988;18.664;2023-01-28T04:34:17;100831.34;;;2.71;95.37
69772;BME280;57046;45.988;18.664;2023-01-28T04:36:42;100826.00;;;2.71;95.59
69772;BME280;57046;45.988;18.664;2023-01-28T04:39:08;100836.69;;;2.76;95.64
69772;BME280;57046;45.988;18.664;2023-01-28T04:41:33;100841.16;;;2.66;96.14
69772;BME280;57046;45.988;18.664;2023-01-28T04:43:58;100847.94;;;2.78;96.02
69772;BME280;57046;45.988;18.664;2023-01-28T04:46:24;100838.19;;;2.57;96.39
69772;BME280;57046;45.988;18.664;2023-01-28T04:48:50;100849.44;;;2.64;95.70
69772;BME280;57046;45.988;18.664;2023-01-28T04:51:18;100852.41;;;2.68;96.12
69772;BME280;57046;45.988;18.664;2023-01-28T04:53:43;100860.97;;;2.75;95.84
69772;BME280;57046;45.988;18.664;2023-01-28T04:56:09;100839.31;;;2.66;95.50
69772;BME280;57046;45.988;18.664;2023-01-28T04:58:34;100859.84;;;2.66;95.94
69772;BME280;57046;45.988;18.664;2023-01-28T05:00:59;100858.78;;;2.67;96.15
69772;BME280;57046;45.988;18.664;2023-01-28T05:03:25;100856.41;;;2.65;96.31
69772;BME280;57046;45.988;18.664;2023-01-28T05:05:51;100865.97;;;2.61;96.00
69772;BME280;57046;45.988;18.664;2023-01-28T05:08:16;100864.41;;;2.65;95.76
69772;BME280;57046;45.988;18.664;2023-01-28T05:10:42;100867.94;;;2.81;94.84
69772;BME280;57046;45.988;18.664;2023-01-28T05:13:08;100865.16;;;2.61;95.26
69772;BME280;57046;45.988;18.664;2023-01-28T05:15:33;100863.06;;;2.68;95.57
69772;BME280;57046;45.988;18.664;2023-01-28T05:17:59;100850.25;;;2.65;95.21
69772;BME280;57046;45.988;18.664;2023-01-28T05:20:24;100855.28;;;2.61;94.73
69772;BME280;57046;45.988;18.664;2023-01-28T05:22:50;100869.22;;;2.68;94.95
69772;BME280;57046;45.988;18.664;2023-01-28T05:25:15;100880.75;;;2.79;94.65
69772;BME280;57046;45.988;18.664;2023-01-28T05:27:41;100870.22;;;2.62;95.20
69772;BME280;57046;45.988;18.664;2023-01-28T05:30:07;100867.59;;;2.67;94.73
69772;BME280;57046;45.988;18.664;2023-01-28T05:32:33;100892.19;;;2.74;94.86
69772;BME280;57046;45.988;18.664;2023-01-28T05:34:59;100859.41;;;2.42;95.45
69772;BME280;57046;45.988;18.664;2023-01-28T05:37:24;100861.31;;;2.41;95.65
69772;BME280;57046;45.988;18.664;2023-01-28T05:39:50;100876.84;;;2.54;95.89
69772;BME280;57046;45.988;18.664;2023-01-28T05:42:15;100879.59;;;2.65;95.62
69772;BME280;57046;45.988;18.664;2023-01-28T05:44:41;100877.97;;;2.59;95.95
69772;BME280;57046;45.988;18.664;2023-01-28T05:47:06;100895.09;;;2.68;95.25
69772;BME280;57046;45.988;18.664;2023-01-28T05:49:31;100882.44;;;2.53;95.53
69772;BME280;57046;45.988;18.664;2023-01-28T05:51:57;100870.75;;;2.59;94.96
69772;BME280;57046;45.988;18.664;2023-01-28T05:54:22;100877.44;;;2.62;95.34
69772;BME280;57046;45.988;18.664;2023-01-28T05:56:48;100887.53;;;2.54;95.42
69772;BME280;57046;45.988;18.664;2023-01-28T05:59:13;100882.56;;;2.73;95.29
69772;BME280;57046;45.988;18.664;2023-01-28T06:01:38;100889.81;;;2.78;94.87
69772;BME280;57046;45.988;18.664;2023-01-28T06:04:04;100906.00;;;2.66;95.26
69772;BME280;57046;45.988;18.664;2023-01-28T06:06:29;100896.81;;;2.47;95.34
69772;BME280;57046;45.988;18.664;2023-01-28T06:08:55;100892.06;;;2.54;95.01
69772;BME280;57046;45.988;18.664;2023-01-28T06:11:20;100906.28;;;2.70;95.06
69772;BME280;57046;45.988;18.664;2023-01-28T06:13:46;100909.44;;;2.62;95.45
69772;BME280;57046;45.988;18.664;2023-01-28T06:16:11;100911.53;;;2.54;95.40
69772;BME280;57046;45.988;18.664;2023-01-28T06:18:36;100909.69;;;2.60;95.16
69772;BME280;57046;45.988;18.664;2023-01-28T06:21:02;100928.19;;;2.72;95.07
69772;BME280;57046;45.988;18.664;2023-01-28T06:23:27;100925.16;;;2.58;95.39
69772;BME280;57046;45.988;18.664;2023-01-28T06:25:54;100917.63;;;2.50;95.17
69772;BME280;57046;45.988;18.664;2023-01-28T06:28:20;100933.25;;;2.73;97.11
69772;BME280;57046;45.988;18.664;2023-01-28T06:30:48;100923.94;;;2.76;94.91
69772;BME280;57046;45.988;18.664;2023-01-28T06:33:14;100933.25;;;2.73;95.07
69772;BME280;57046;45.988;18.664;2023-01-28T06:35:40;100925.97;;;2.59;94.93
69772;BME280;57046;45.988;18.664;2023-01-28T06:38:05;100937.34;;;2.49;95.49
69772;BME280;57046;45.988;18.664;2023-01-28T06:40:30;100943.25;;;2.56;95.35
69772;BME280;57046;45.988;18.664;2023-01-28T06:42:56;100965.75;;;2.65;95.00
69772;BME280;57046;45.988;18.664;2023-01-28T06:45:21;100954.00;;;2.61;95.42
69772;BME280;57046;45.988;18.664;2023-01-28T06:47:46;100952.06;;;2.56;95.01
69772;BME280;57046;45.988;18.664;2023-01-28T06:50:12;100948.22;;;2.42;95.16
69772;BME280;57046;45.988;18.664;2023-01-28T06:52:38;100948.38;;;2.58;95.45
69772;BME280;57046;45.988;18.664;2023-01-28T06:55:04;100954.00;;;2.61;95.04
69772;BME280;57046;45.988;18.664;2023-01-28T06:57:29;100968.09;;;2.56;95.44
69772;BME280;57046;45.988;18.664;2023-01-28T06:59:54;100969.19;;;2.61;94.74
69772;BME280;57046;45.988;18.664;2023-01-28T07:02:20;100970.31;;;2.70;94.50
69772;BME280;57046;45.988;18.664;2023-01-28T07:04:45;100967.28;;;2.56;94.77
69772;BME280;57046;45.988;18.664;2023-01-28T07:07:10;100968.09;;;2.56;95.31
69772;BME280;57046;45.988;18.664;2023-01-28T07:09:36;100965.41;;;2.56;95.02
69772;BME280;57046;45.988;18.664;2023-01-28T07:12:01;100971.56;;;2.57;95.24
69772;BME280;57046;45.988;18.664;2023-01-28T07:14:26;100977.44;;;2.59;94.92
69772;BME280;57046;45.988;18.664;2023-01-28T07:16:52;100974.84;;;2.69;94.46
69772;BME280;57046;45.988;18.664;2023-01-28T07:19:17;100973.13;;;2.53;94.78
69772;BME280;57046;45.988;18.664;2023-01-28T07:21:43;100976.66;;;2.59;94.75
69772;BME280;57046;45.988;18.664;2023-01-28T07:24:08;100970.00;;;2.61;94.77
69772;BME280;57046;45.988;18.664;2023-01-28T07:26:34;100974.25;;;2.62;94.93
69772;BME280;57046;45.988;18.664;2023-01-28T07:28:59;100981.56;;;2.72;94.21
69772;BME280;57046;45.988;18.664;2023-01-28T07:31:24;100967.28;;;2.56;94.33
69772;BME280;57046;45.988;18.664;2023-01-28T07:33:50;100982.81;;;2.64;94.37
69772;BME280;57046;45.988;18.664;2023-01-28T07:36:15;100982.31;;;2.67;94.78
69772;BME280;57046;45.988;18.664;2023-01-28T07:38:40;100983.50;;;2.86;93.61
69772;BME280;57046;45.988;18.664;2023-01-28T07:41:06;100978.03;;;2.66;93.74
69772;BME280;57046;45.988;18.664;2023-01-28T07:43:31;100988.47;;;2.73;94.38
69772;BME280;57046;45.988;18.664;2023-01-28T07:45:59;100984.75;;;2.69;93.95
69772;BME280;57046;45.988;18.664;2023-01-28T07:48:25;100983.41;;;2.71;94.31
69772;BME280;57046;45.988;18.664;2023-01-28T07:50:50;100992.69;;;2.64;92.91
69772;BME280;57046;45.988;18.664;2023-01-28T07:53:16;101011.19;;;2.75;93.40
69772;BME280;57046;45.988;18.664;2023-01-28T07:55:41;101009.59;;;2.74;93.83
69772;BME280;57046;45.988;18.664;2023-01-28T07:58:09;100996.75;;;2.71;93.57
69772;BME280;57046;45.988;18.664;2023-01-28T08:00:36;101018.84;;;2.67;93.70
69772;BME280;57046;45.988;18.664;2023-01-28T08:03:05;100998.09;;;2.74;93.53
69772;BME280;57046;45.988;18.664;2023-01-28T08:05:38;101019.97;;;2.76;93.68
69772;BME280;57046;45.988;18.664;2023-01-28T08:08:04;101013.88;;;2.75;93.40
69772;BME280;57046;45.988;18.664;2023-01-28T08:10:30;101005.13;;;2.85;92.88
69772;BME280;57046;45.988;18.664;2023-01-28T08:12:57;101011.88;;;2.92;92.67
69772;BME280;57046;45.988;18.664;2023-01-28T08:15:22;101011.00;;;2.87;93.83
69772;BME280;57046;45.988;18.664;2023-01-28T08:17:48;101023.84;;;2.90;93.57
69772;BME280;57046;45.988;18.664;2023-01-28T08:20:14;101007.00;;;2.84;93.29
69772;BME280;57046;45.988;18.664;2023-01-28T08:22:39;101007.72;;;2.75;93.63
69772;BME280;57046;45.988;18.664;2023-01-28T08:25:05;101013.94;;;2.85;92.94
69772;BME280;57046;45.988;18.664;2023-01-28T08:27:30;101031.63;;;2.96;92.56
69772;BME280;57046;45.988;18.664;2023-01-28T08:29:56;101017.66;;;2.84;92.19
69772;BME280;57046;45.988;18.664;2023-01-28T08:32:22;101020.25;;;3.06;92.92
69772;BME280;57046;45.988;18.664;2023-01-28T08:34:47;100964.19;;;2.69;92.42
69772;BME280;57046;45.988;18.664;2023-01-28T08:37:13;101007.59;;;2.91;91.96
69772;BME280;57046;45.988;18.664;2023-01-28T08:39:38;101016.91;;;2.89;92.12
69772;BME280;57046;45.988;18.664;2023-01-28T08:42:05;101022.88;;;3.01;92.12
69772;BME280;57046;45.988;18.664;2023-01-28T08:44:30;101012.25;;;3.11;91.52
69772;BME280;57046;45.988;18.664;2023-01-28T08:46:56;101035.03;;;3.24;92.15
69772;BME280;57046;45.988;18.664;2023-01-28T08:49:21;101030.09;;;3.42;92.06
69772;BME280;57046;45.988;18.664;2023-01-28T08:51:47;101027.31;;;3.27;91.02
69772;BME280;57046;45.988;18.664;2023-01-28T08:54:12;101031.13;;;3.36;89.98
69772;BME280;57046;45.988;18.664;2023-01-28T08:56:38;101038.13;;;3.42;89.98
69772;BME280;57046;45.988;18.664;2023-01-28T08:59:03;101032.78;;;3.47;89.65
69772;BME280;57046;45.988;18.664;2023-01-28T09:01:29;101038.41;;;3.46;89.65
69772;BME280;57046;45.988;18.664;2023-01-28T09:03:54;101030.16;;;3.57;90.59
69772;BME280;57046;45.988;18.664;2023-01-28T09:06:19;101029.41;;;3.62;89.42
69772;BME280;57046;45.988;18.664;2023-01-28T09:08:45;101038.28;;;3.73;88.73
69772;BME280;57046;45.988;18.664;2023-01-28T09:11:10;101033.47;;;3.75;89.48
69772;BME280;57046;45.988;18.664;2023-01-28T09:13:35;101043.09;;;3.76;88.00
69772;BME280;57046;45.988;18.664;2023-01-28T09:16:04;101021.72;;;3.76;88.40
69772;BME280;57046;45.988;18.664;2023-01-28T09:18:30;101046.97;;;4.05;88.95
69772;BME280;57046;45.988;18.664;2023-01-28T09:20:55;101047.81;;;4.10;89.56
69772;BME280;57046;45.988;18.664;2023-01-28T09:23:21;101025.56;;;4.05;87.09
69772;BME280;57046;45.988;18.664;2023-01-28T09:25:46;101037.84;;;3.96;86.74
69772;BME280;57046;45.988;18.664;2023-01-28T09:28:11;101030.13;;;4.09;86.19
69772;BME280;57046;45.988;18.664;2023-01-28T09:30:37;101030.91;;;4.05;87.13
69772;BME280;57046;45.988;18.664;2023-01-28T09:33:02;101042.44;;;4.10;86.25
69772;BME280;57046;45.988;18.664;2023-01-28T09:35:27;101058.75;;;4.04;86.26
69772;BME280;57046;45.988;18.664;2023-01-28T09:37:58;101051.00;;;4.07;85.47
69772;BME280;57046;45.988;18.664;2023-01-28T09:40:39;101057.19;;;4.23;86.72
69772;BME280;57046;45.988;18.664;2023-01-28T09:45:40;101054.25;;;4.30;85.71
69772;BME280;57046;45.988;18.664;2023-01-28T09:48:16;101042.50;;;4.31;85.71
69772;BME280;57046;45.988;18.664;2023-01-28T09:50:53;101048.38;;;4.28;84.93
69772;BME280;57046;45.988;18.664;2023-01-28T09:53:30;101030.72;;;4.22;83.62
69772;BME280;57046;45.988;18.664;2023-01-28T09:56:03;101055.94;;;4.51;83.85
69772;BME280;57046;45.988;18.664;2023-01-28T09:58:30;101060.75;;;4.54;84.64
69772;BME280;57046;45.988;18.664;2023-01-28T10:07:24;101054.09;;;4.72;84.09
69772;BME280;57046;45.988;18.664;2023-01-28T10:12:55;101056.78;;;5.12;84.23
69772;BME280;57046;45.988;18.664;2023-01-28T10:18:10;101046.06;;;4.72;82.40
69772;BME280;57046;45.988;18.664;2023-01-28T10:21:05;101046.84;;;4.67;81.72
69772;BME280;57046;45.988;18.664;2023-01-28T10:23:58;101051.69;;;4.75;82.94
69772;BME280;57046;45.988;18.664;2023-01-28T10:26:33;101053.84;;;4.78;82.33
69772;BME280;57046;45.988;18.664;2023-01-28T10:29:10;101038.84;;;4.82;82.29
69772;BME280;57046;45.988;18.664;2023-01-28T10:31:42;101048.75;;;4.82;81.30
69772;BME280;57046;45.988;18.664;2023-01-28T10:34:09;101042.06;;;4.99;81.21
69772;BME280;57046;45.988;18.664;2023-01-28T10:36:35;101039.66;;;4.73;81.89
69772;BME280;57046;45.988;18.664;2023-01-28T10:39:00;101048.75;;;4.87;82.40
69772;BME280;57046;45.988;18.664;2023-01-28T10:41:26;101054.91;;;4.77;81.56
69772;BME280;57046;45.988;18.664;2023-01-28T10:43:51;101023.56;;;4.52;82.86
69772;BME280;57046;45.988;18.664;2023-01-28T10:46:29;101055.94;;;4.66;83.45
69772;BME280;57046;45.988;18.664;2023-01-28T10:49:14;101053.28;;;4.71;82.15
69772;BME280;57046;45.988;18.664;2023-01-28T10:51:42;101053.03;;;4.63;82.49
69772;BME280;57046;45.988;18.664;2023-01-28T10:54:27;101051.94;;;4.58;81.94
69772;BME280;57046;45.988;18.664;2023-01-28T10:57:01;101059.16;;;4.58;80.98
69772;BME280;57046;45.988;18.664;2023-01-28T10:59:32;101048.72;;;4.67;82.64
69772;BME280;57046;45.988;18.664;2023-01-28T11:02:03;101052.19;;;4.57;81.67
69772;BME280;57046;45.988;18.664;2023-01-28T11:04:34;101049.81;;;4.76;83.01
69772;BME280;57046;45.988;18.664;2023-01-28T11:07:05;101057.03;;;4.65;79.72
69772;BME280;57046;45.988;18.664;2023-01-28T11:09:34;101041.25;;;4.69;81.20
69772;BME280;57046;45.988;18.664;2023-01-28T11:12:25;101043.94;;;4.99;82.40
69772;BME280;57046;45.988;18.664;2023-01-28T11:14:56;101044.47;;;5.01;81.10
69772;BME280;57046;45.988;18.664;2023-01-28T11:17:24;101039.38;;;4.99;80.38
69772;BME280;57046;45.988;18.664;2023-01-28T11:19:55;101043.66;;;4.95;81.49
69772;BME280;57046;45.988;18.664;2023-01-28T11:22:35;101043.13;;;4.98;81.18
69772;BME280;57046;45.988;18.664;2023-01-28T11:25:15;101034.81;;;4.85;81.76
69772;BME280;57046;45.988;18.664;2023-01-28T11:27:46;101043.09;;;4.83;81.78
69772;BME280;57046;45.988;18.664;2023-01-28T11:30:25;101035.34;;;4.87;82.49
69772;BME280;57046;45.988;18.664;2023-01-28T11:33:03;101040.44;;;4.78;80.94
69772;BME280;57046;45.988;18.664;2023-01-28T11:35:30;101018.47;;;4.61;80.89
69772;BME280;57046;45.988;18.664;2023-01-28T11:37:57;101042.31;;;4.88;81.21
69772;BME280;57046;45.988;18.664;2023-01-28T11:40:23;101044.75;;;4.99;83.30
69772;BME280;57046;45.988;18.664;2023-01-28T11:42:49;101029.47;;;5.00;82.19
69772;BME280;57046;45.988;18.664;2023-01-28T11:45:31;101042.84;;;5.15;80.62
69772;BME280;57046;45.988;18.664;2023-01-28T11:50:59;101037.50;;;4.85;80.77
69772;BME280;57046;45.988;18.664;2023-01-28T12:36:55;101034.94;;;5.79;80.54
69772;BME280;57046;45.988;18.664;2023-01-28T12:42:41;101032.09;;;5.45;81.36
69772;BME280;57046;45.988;18.664;2023-01-28T12:45:18;101031.19;;;5.80;85.33
69772;BME280;57046;45.988;18.664;2023-01-28T12:48:10;101033.94;;;5.60;79.65
69772;BME280;57046;45.988;18.664;2023-01-28T12:50:48;101028.53;;;5.70;83.55
69772;BME280;57046;45.988;18.664;2023-01-28T12:53:39;101040.34;;;5.74;79.80
69772;BME280;57046;45.988;18.664;2023-01-28T12:56:14;101044.56;;;6.00;79.94
69772;BME280;57046;45.988;18.664;2023-01-28T12:59:03;101045.41;;;5.76;78.55
69772;BME280;57046;45.988;18.664;2023-01-28T13:01:36;101055.63;;;5.74;81.67
69772;BME280;57046;45.988;18.664;2023-01-28T13:06:41;101041.66;;;7.42;93.32
69772;BME280;57046;45.988;18.664;2023-01-28T13:09:17;101027.59;;;6.10;76.11
69772;BME280;57046;45.988;18.664;2023-01-28T13:11:44;101054.28;;;5.66;78.56
69772;BME280;57046;45.988;18.664;2023-01-28T13:14:11;101063.97;;;5.42;79.07
69772;BME280;57046;45.988;18.664;2023-01-28T13:16:38;101055.72;;;5.23;79.26
69772;BME280;57046;45.988;18.664;2023-01-28T13:21:44;101067.78;;;5.05;80.21
69772;BME280;57046;45.988;18.664;2023-01-28T13:26:41;101060.78;;;5.04;80.08
69772;BME280;57046;45.988;18.664;2023-01-28T13:31:46;101080.09;;;5.01;79.17
69772;BME280;57046;45.988;18.664;2023-01-28T13:36:52;101056.78;;;4.97;79.81
69772;BME280;57046;45.988;18.664;2023-01-28T13:39:20;101076.59;;;4.96;80.49
69772;BME280;57046;45.988;18.664;2023-01-28T13:42:07;101077.69;;;4.90;80.80
69772;BME280;57046;45.988;18.664;2023-01-28T13:44:34;101088.59;;;4.73;81.84
69772;BME280;57046;45.988;18.664;2023-01-28T13:54:41;101100.44;;;4.82;80.27
69772;BME280;57046;45.988;18.664;2023-01-28T14:08:11;101103.09;;;4.72;81.46
69772;BME280;57046;45.988;18.664;2023-01-28T14:16:28;101108.97;;;4.84;81.73
69772;BME280;57046;45.988;18.664;2023-01-28T14:18:58;101105.97;;;4.50;81.84
69772;BME280;57046;45.988;18.664;2023-01-28T14:21:26;101106.81;;;4.61;81.04
69772;BME280;57046;45.988;18.664;2023-01-28T14:23:54;101117.75;;;4.54;83.44
69772;BME280;57046;45.988;18.664;2023-01-28T14:31:36;101118.53;;;4.50;81.93
69772;BME280;57046;45.988;18.664;2023-01-28T14:36:43;101105.94;;;4.40;81.98
69772;BME280;57046;45.988;18.664;2023-01-28T14:39:23;101115.34;;;4.53;81.19
69772;BME280;57046;45.988;18.664;2023-01-28T14:41:51;101125.25;;;4.57;81.42
69772;BME280;57046;45.988;18.664;2023-01-28T14:58:10;101139.91;;;4.40;82.86
69772;BME280;57046;45.988;18.664;2023-01-28T15:00:39;101144.47;;;4.44;82.46
69772;BME280;57046;45.988;18.664;2023-01-28T15:03:23;101151.69;;;4.39;83.12
69772;BME280;57046;45.988;18.664;2023-01-28T15:05:49;101152.16;;;4.26;83.16
69772;BME280;57046;45.988;18.664;2023-01-28T15:08:23;101141.00;;;4.39;82.87
69772;BME280;57046;45.988;18.664;2023-01-28T15:10:51;101160.75;;;4.33;82.49
69772;BME280;57046;45.988;18.664;2023-01-28T15:13:25;101135.84;;;4.27;82.05
69772;BME280;57046;45.988;18.664;2023-01-28T15:15:52;101162.88;;;4.36;82.59
69772;BME280;57046;45.988;18.664;2023-01-28T15:18:21;101168.03;;;4.47;82.44